Time;durP1;ratioP1;P1;durP2;ratioP2;P2;SDS_P1;SDS_P2;PMS_P1;PMS_P2;Temp;Humidity;BMP_temperature;BMP_pressure;BME280_temperature;BME280_humidity;BME280_pressure;Samples;Min_cycle;Max_cycle;Signal;HPM_P1;HPM_P2
2023/06/16 00:00:10;;;;;;;9.70;5.90;;;19.10;65.00;;;;;;5101231;28;20487;-79
2023/06/16 00:02:43;;;;;;;14.40;5.43;;;19.10;64.90;;;;;;5105370;28;20560;-78
2023/06/16 00:05:12;;;;;;;9.87;5.60;;;19.10;64.80;;;;;;5087508;28;20470;-80
2023/06/16 00:07:40;;;;;;;9.43;5.70;;;19.00;64.80;;;;;;5101203;28;20468;-80
2023/06/16 00:10:09;;;;;;;10.03;6.33;;;18.90;64.90;;;;;;5105505;28;20545;-80
2023/06/16 00:12:37;;;;;;;15.83;6.70;;;18.90;64.90;;;;;;5102940;28;20519;-79
2023/06/16 00:15:08;;;;;;;9.90;6.07;;;18.90;64.90;;;;;;5099039;28;20452;-80
2023/06/16 00:17:44;;;;;;;8.57;5.27;;;18.80;64.70;;;;;;5091754;28;20451;-79
2023/06/16 00:20:15;;;;;;;10.33;6.03;;;18.70;64.70;;;;;;5101710;28;20449;-79
2023/06/16 00:22:47;;;;;;;11.50;6.40;;;18.60;64.70;;;;;;5107210;28;20444;-79
2023/06/16 00:25:17;;;;;;;9.53;5.90;;;18.50;64.80;;;;;;5107990;28;20503;-81
2023/06/16 00:27:45;;;;;;;8.47;5.60;;;18.50;64.90;;;;;;5099939;28;20501;-79
2023/06/16 00:30:14;;;;;;;11.67;6.40;;;18.40;65.00;;;;;;5098265;28;20454;-80
2023/06/16 00:32:43;;;;;;;13.73;5.40;;;18.40;65.00;;;;;;5103557;28;20552;-80
2023/06/16 00:35:14;;;;;;;8.80;5.50;;;18.40;65.00;;;;;;5095808;28;20467;-80
2023/06/16 00:37:42;;;;;;;10.93;6.40;;;18.40;64.90;;;;;;5110025;28;20448;-80
2023/06/16 00:40:11;;;;;;;10.20;5.23;;;18.30;64.90;;;;;;5106863;28;20546;-80
2023/06/16 00:42:39;;;;;;;11.30;5.90;;;18.20;64.80;;;;;;5093150;28;20543;-80
2023/06/16 00:45:10;;;;;;;10.40;5.43;;;18.20;64.90;;;;;;5107636;28;20471;-79
2023/06/16 00:47:38;;;;;;;8.80;5.57;;;18.20;64.90;;;;;;5093920;28;21301;-79
2023/06/16 00:50:07;;;;;;;9.93;5.97;;;18.20;64.90;;;;;;5088674;28;20454;-80
2023/06/16 00:52:39;;;;;;;8.53;5.60;;;18.20;64.90;;;;;;5095893;28;20896;-80
2023/06/16 00:55:11;;;;;;;10.70;6.10;;;18.10;64.80;;;;;;5095456;28;20454;-81
2023/06/16 00:57:43;;;;;;;15.80;5.80;;;18.00;64.80;;;;;;5089682;28;20456;-78
2023/06/16 01:00:13;;;;;;;9.30;5.60;;;18.00;64.90;;;;;;5109764;28;20453;-80
2023/06/16 01:02:47;;;;;;;9.90;5.33;;;18.00;64.90;;;;;;5111486;28;21397;-80
2023/06/16 01:05:19;;;;;;;9.60;5.70;;;18.00;64.90;;;;;;5106219;28;20451;-78
2023/06/16 01:08:02;;;;;;;11.70;6.10;;;17.90;64.80;;;;;;5094318;28;20441;-81
2023/06/16 01:10:38;;;;;;;10.70;6.17;;;17.90;64.90;;;;;;5105424;28;20476;-80
2023/06/16 01:13:13;;;;;;;11.10;6.83;;;17.80;64.90;;;;;;5101606;28;20482;-80
2023/06/16 01:15:45;;;;;;;8.30;5.30;;;17.70;64.80;;;;;;5112031;28;20447;-80
2023/06/16 01:18:22;;;;;;;11.40;6.10;;;17.60;64.90;;;;;;5094146;28;20457;-81
2023/06/16 01:20:56;;;;;;;10.30;5.97;;;17.60;64.90;;;;;;5087493;28;20452;-80
2023/06/16 01:23:34;;;;;;;15.53;6.30;;;17.50;65.00;;;;;;5097301;28;20541;-79
2023/06/16 01:26:07;;;;;;;9.70;6.00;;;17.50;65.10;;;;;;5095377;28;20460;-78
2023/06/16 01:28:43;;;;;;;8.50;5.97;;;17.50;65.10;;;;;;5097100;28;20475;-78
2023/06/16 01:31:15;;;;;;;9.93;5.70;;;17.50;65.10;;;;;;5090942;28;20999;-79
2023/06/16 01:33:46;;;;;;;10.93;6.40;;;17.40;65.10;;;;;;5087681;28;20464;-81
2023/06/16 01:36:16;;;;;;;12.60;7.00;;;17.40;65.20;;;;;;5104492;28;20454;-81
2023/06/16 01:38:45;;;;;;;15.17;7.47;;;17.30;65.20;;;;;;5112130;28;20535;-79
2023/06/16 01:41:17;;;;;;;8.57;6.07;;;17.30;65.30;;;;;;5091235;28;20505;-79
2023/06/16 01:43:47;;;;;;;10.90;6.47;;;17.20;65.30;;;;;;5094746;28;20621;-78
2023/06/16 01:46:17;;;;;;;9.27;6.43;;;17.20;65.30;;;;;;5110504;28;20460;-79
2023/06/16 01:48:46;;;;;;;11.23;5.80;;;17.20;65.50;;;;;;5110501;28;20500;-78
2023/06/16 01:51:15;;;;;;;18.83;7.20;;;17.20;65.60;;;;;;5095126;28;20475;-79
2023/06/16 01:53:46;;;;;;;13.03;7.00;;;17.10;65.60;;;;;;5113803;28;20524;-78
2023/06/16 01:56:17;;;;;;;10.03;5.93;;;17.10;65.60;;;;;;5091560;28;20493;-80
2023/06/16 01:58:46;;;;;;;14.70;6.30;;;17.10;65.60;;;;;;5085630;28;20831;-79
2023/06/16 02:01:19;;;;;;;10.27;5.50;;;17.10;65.60;;;;;;5094765;28;20538;-79
2023/06/16 02:03:53;;;;;;;13.00;7.00;;;17.10;65.50;;;;;;5093200;28;20473;-80
2023/06/16 02:06:26;;;;;;;13.07;6.27;;;17.10;65.50;;;;;;5086621;28;20447;-80
2023/06/16 02:08:56;;;;;;;12.23;6.47;;;17.00;65.50;;;;;;5104270;28;20566;-80
2023/06/16 02:11:26;;;;;;;11.27;6.20;;;16.90;65.60;;;;;;5090033;28;20540;-79
2023/06/16 02:13:55;;;;;;;11.53;5.90;;;16.90;65.60;;;;;;5085019;28;20460;-79
2023/06/16 02:16:23;;;;;;;10.93;5.87;;;16.90;65.60;;;;;;5100588;28;20810;-80
2023/06/16 02:18:53;;;;;;;11.00;5.77;;;16.90;65.50;;;;;;5086955;28;20450;-80
2023/06/16 02:21:22;;;;;;;16.90;5.73;;;16.90;65.40;;;;;;5088111;28;20506;-79
2023/06/16 02:23:52;;;;;;;10.37;5.73;;;16.90;65.40;;;;;;5107149;28;20459;-80
2023/06/16 02:26:21;;;;;;;9.20;5.80;;;16.80;65.40;;;;;;5100117;28;20456;-80
2023/06/16 02:28:51;;;;;;;11.40;5.70;;;16.80;65.30;;;;;;5094150;28;21166;-78
2023/06/16 02:31:19;;;;;;;9.20;5.80;;;16.80;65.30;;;;;;5085873;28;20554;-79
2023/06/16 02:33:50;;;;;;;14.07;6.40;;;16.80;65.30;;;;;;5099567;28;20931;-81
2023/06/16 02:36:19;;;;;;;9.10;6.20;;;16.80;65.30;;;;;;5088780;28;20445;-80
2023/06/16 02:38:47;;;;;;;12.73;6.50;;;16.80;65.30;;;;;;5102889;28;20446;-79
2023/06/16 02:41:15;;;;;;;11.00;5.53;;;16.80;65.20;;;;;;5093346;28;20439;-80
2023/06/16 02:43:43;;;;;;;9.17;5.40;;;16.80;65.10;;;;;;5094171;28;20511;-79
2023/06/16 02:46:13;;;;;;;10.73;6.30;;;16.80;65.10;;;;;;5097456;28;20932;-80
2023/06/16 02:48:41;;;;;;;13.73;6.27;;;16.80;65.00;;;;;;5089081;28;20457;-80
2023/06/16 02:51:09;;;;;;;13.30;6.07;;;16.80;65.00;;;;;;5090011;28;20452;-79
2023/06/16 02:53:39;;;;;;;11.87;6.70;;;16.70;64.90;;;;;;5086751;28;20880;-78
2023/06/16 02:56:07;;;;;;;12.67;6.17;;;16.70;64.80;;;;;;5096317;28;21011;-79
2023/06/16 02:58:37;;;;;;;11.00;6.10;;;16.60;64.80;;;;;;5086387;28;20452;-78
2023/06/16 03:01:05;;;;;;;11.30;6.10;;;16.50;64.80;;;;;;5088671;28;20456;-79
2023/06/16 03:03:54;;;;;;;11.60;5.70;;;16.50;64.90;;;;;;5085134;28;20464;-79
2023/06/16 03:06:34;;;;;;;11.47;6.57;;;16.40;65.00;;;;;;5090994;28;21449;-80
2023/06/16 03:09:07;;;;;;;13.40;6.50;;;16.40;65.10;;;;;;5085057;28;20477;-79
2023/06/16 03:11:37;;;;;;;9.63;5.80;;;16.30;65.10;;;;;;5081109;28;20464;-80
2023/06/16 03:14:06;;;;;;;9.50;6.40;;;16.30;65.10;;;;;;5098968;28;20460;-80
2023/06/16 03:16:35;;;;;;;10.50;6.53;;;16.20;65.20;;;;;;5088615;28;20452;-81
2023/06/16 03:19:05;;;;;;;10.63;6.33;;;16.20;65.30;;;;;;5086368;28;20512;-80
2023/06/16 03:21:33;;;;;;;11.90;6.97;;;16.20;65.40;;;;;;5091916;28;20455;-80
2023/06/16 03:24:01;;;;;;;12.93;7.90;;;16.20;65.60;;;;;;5106441;28;20473;-79
2023/06/16 03:26:31;;;;;;;11.33;6.40;;;16.20;65.70;;;;;;5089160;28;20466;-80
2023/06/16 03:29:12;;;;;;;12.00;6.50;;;16.20;65.80;;;;;;5099335;28;20534;-78
2023/06/16 03:31:40;;;;;;;11.67;6.30;;;16.20;65.80;;;;;;5102623;28;20881;-79
2023/06/16 03:34:13;;;;;;;15.20;7.40;;;16.20;65.70;;;;;;5103065;28;20456;-79
2023/06/16 03:36:53;;;;;;;8.00;5.70;;;16.10;65.70;;;;;;5082904;28;20456;-80
2023/06/16 03:39:25;;;;;;;11.80;6.80;;;16.00;65.70;;;;;;5090213;28;20445;-79
2023/06/16 03:41:53;;;;;;;9.43;6.90;;;16.00;65.80;;;;;;5087353;28;20891;-79
2023/06/16 03:44:21;;;;;;;12.63;6.60;;;16.00;65.90;;;;;;5097534;28;20461;-78
2023/06/16 03:46:49;;;;;;;13.27;6.37;;;16.00;65.90;;;;;;5106455;28;20461;-78
2023/06/16 03:49:19;;;;;;;9.93;6.97;;;16.00;65.90;;;;;;5087327;28;20458;-79
2023/06/16 03:51:47;;;;;;;15.00;7.73;;;16.00;65.90;;;;;;5090400;28;20503;-79
2023/06/16 03:54:16;;;;;;;11.10;7.17;;;15.90;66.00;;;;;;5090260;28;20551;-79
2023/06/16 03:56:45;;;;;;;13.63;7.00;;;15.90;66.10;;;;;;5100028;28;20540;-80
2023/06/16 03:59:13;;;;;;;10.57;7.10;;;15.80;66.20;;;;;;5081396;28;20462;-80
2023/06/16 04:01:46;;;;;;;11.90;6.67;;;15.80;66.30;;;;;;5085200;28;20470;-81
2023/06/16 04:04:15;;;;;;;10.00;6.77;;;15.80;66.50;;;;;;5090727;28;20451;-79
2023/06/16 04:06:48;;;;;;;10.77;6.70;;;15.80;66.60;;;;;;5092847;28;20451;-81
2023/06/16 04:09:16;;;;;;;13.70;7.50;;;15.90;66.70;;;;;;5084789;28;20530;-80
2023/06/16 04:11:45;;;;;;;12.60;6.83;;;15.90;66.60;;;;;;5087934;28;20456;-80
2023/06/16 04:14:13;;;;;;;10.83;6.47;;;15.90;66.60;;;;;;5089212;28;20459;-81
2023/06/16 04:16:42;;;;;;;12.00;7.77;;;15.90;66.70;;;;;;5085210;28;20948;-80
2023/06/16 04:19:14;;;;;;;12.07;7.13;;;15.90;66.80;;;;;;5089563;28;20584;-80
2023/06/16 04:21:42;;;;;;;11.90;6.10;;;15.90;66.90;;;;;;5091326;28;20596;-80
2023/06/16 04:24:15;;;;;;;14.03;6.20;;;15.90;66.90;;;;;;5099437;28;20449;-78
2023/06/16 04:26:45;;;;;;;12.63;6.37;;;16.00;67.10;;;;;;5073977;28;20470;-80
2023/06/16 04:29:14;;;;;;;11.40;6.43;;;16.00;67.30;;;;;;5092255;28;20448;-80
2023/06/16 04:31:45;;;;;;;12.30;7.17;;;16.20;67.40;;;;;;5081708;28;20991;-79
2023/06/16 04:34:13;;;;;;;10.73;6.63;;;16.30;67.50;;;;;;5091871;28;20455;-79
2023/06/16 04:36:44;;;;;;;14.07;7.50;;;16.40;67.50;;;;;;5082558;28;20482;-80
2023/06/16 04:39:28;;;;;;;11.73;6.83;;;16.50;67.60;;;;;;5090734;28;20551;-80
2023/06/16 04:41:57;;;;;;;13.07;7.57;;;16.70;67.70;;;;;;5086608;28;20510;-80
2023/06/16 04:44:28;;;;;;;11.00;6.80;;;16.80;67.60;;;;;;5091224;28;20805;-80
2023/06/16 04:46:56;;;;;;;13.60;6.70;;;16.90;67.60;;;;;;5076875;28;21017;-81
2023/06/16 04:49:24;;;;;;;11.00;6.50;;;17.10;67.60;;;;;;5085359;28;20448;-80
2023/06/16 04:51:52;;;;;;;13.47;7.67;;;17.20;67.60;;;;;;5083327;28;20463;-80
2023/06/16 04:54:21;;;;;;;15.13;7.40;;;17.40;67.50;;;;;;5088495;28;20804;-80
2023/06/16 04:56:50;;;;;;;10.10;6.87;;;17.60;67.50;;;;;;5092220;28;21007;-80
2023/06/16 04:59:18;;;;;;;12.70;7.27;;;17.70;67.50;;;;;;5090897;28;20453;-80
2023/06/16 05:01:50;;;;;;;10.83;7.47;;;17.90;67.50;;;;;;5104310;28;20491;-79
2023/06/16 05:04:18;;;;;;;12.53;7.27;;;18.00;67.40;;;;;;5089604;28;20451;-80
2023/06/16 05:06:46;;;;;;;14.73;7.63;;;18.10;67.20;;;;;;5096780;28;20488;-80
2023/06/16 05:09:15;;;;;;;14.33;7.80;;;18.10;67.10;;;;;;5099449;28;20458;-80
2023/06/16 05:11:43;;;;;;;12.00;7.77;;;18.10;67.30;;;;;;5088432;28;20973;-79
2023/06/16 05:14:12;;;;;;;15.20;7.97;;;18.10;67.50;;;;;;5103400;28;20451;-79
2023/06/16 05:16:42;;;;;;;14.40;7.97;;;18.30;67.70;;;;;;5087071;28;20518;-80
2023/06/16 05:19:10;;;;;;;13.20;8.63;;;18.40;67.80;;;;;;5083086;28;20570;-80
2023/06/16 05:21:48;;;;;;;12.60;8.00;;;18.60;67.70;;;;;;5088518;28;20853;-79
2023/06/16 05:24:16;;;;;;;10.53;7.57;;;18.80;67.60;;;;;;5080016;28;20447;-79
2023/06/16 05:26:45;;;;;;;11.40;7.37;;;19.00;67.30;;;;;;5084303;28;20904;-79
2023/06/16 05:29:16;;;;;;;10.33;7.17;;;19.20;67.00;;;;;;5087946;28;20501;-79
2023/06/16 05:31:45;;;;;;;15.10;7.70;;;19.30;66.80;;;;;;5090172;28;20475;-80
2023/06/16 05:34:14;;;;;;;10.13;7.77;;;19.50;66.60;;;;;;5084541;28;20542;-79
2023/06/16 05:36:42;;;;;;;11.90;7.80;;;19.70;66.60;;;;;;5086344;28;20479;-80
2023/06/16 05:39:14;;;;;;;11.13;7.67;;;20.00;66.80;;;;;;5088301;28;20509;-80
2023/06/16 05:41:43;;;;;;;12.40;7.90;;;20.50;66.50;;;;;;5086060;28;20454;-81
2023/06/16 05:44:14;;;;;;;11.97;7.10;;;21.20;65.20;;;;;;5089395;28;20460;-81
2023/06/16 05:46:45;;;;;;;12.93;8.07;;;22.20;63.50;;;;;;5078072;28;20985;-82
2023/06/16 05:49:17;;;;;;;11.30;7.10;;;23.00;61.90;;;;;;5087663;28;20452;-80
2023/06/16 05:51:45;;;;;;;12.77;6.80;;;23.90;60.80;;;;;;5082555;28;20476;-81
2023/06/16 05:54:13;;;;;;;12.80;7.87;;;24.60;59.90;;;;;;5088384;28;20472;-81
2023/06/16 05:56:41;;;;;;;12.10;6.80;;;25.20;59.00;;;;;;5110208;28;20491;-79
2023/06/16 05:59:09;;;;;;;13.50;6.43;;;25.90;58.10;;;;;;5092252;28;20463;-83
2023/06/16 06:01:38;;;;;;;13.57;7.77;;;26.40;57.10;;;;;;5088747;28;20461;-81
2023/06/16 06:04:11;;;;;;;10.40;7.30;;;26.80;56.40;;;;;;5086998;28;20452;-81
2023/06/16 06:06:39;;;;;;;10.97;6.80;;;27.20;55.50;;;;;;5086142;28;20515;-80
2023/06/16 06:09:07;;;;;;;16.57;6.67;;;27.60;54.90;;;;;;5086076;28;20452;-81
2023/06/16 06:11:36;;;;;;;12.57;6.53;;;27.70;54.40;;;;;;5083790;28;20506;-80
2023/06/16 06:14:04;;;;;;;9.70;6.00;;;27.60;54.20;;;;;;5090549;28;20966;-80
2023/06/16 06:16:33;;;;;;;9.70;6.33;;;27.30;54.10;;;;;;5082287;28;20539;-81
2023/06/16 06:19:01;;;;;;;9.70;5.47;;;26.90;54.10;;;;;;5089632;28;20482;-80
2023/06/16 06:21:32;;;;;;;10.67;5.80;;;26.60;54.10;;;;;;5103298;28;20595;-79
2023/06/16 06:24:01;;;;;;;9.90;6.13;;;26.20;54.10;;;;;;5089527;28;20459;-81
2023/06/16 06:26:29;;;;;;;13.37;6.70;;;25.80;54.40;;;;;;5089268;28;21068;-81
2023/06/16 06:28:57;;;;;;;9.33;5.63;;;25.40;54.50;;;;;;5105945;28;20685;-83
2023/06/16 06:31:26;;;;;;;11.30;6.43;;;25.10;54.70;;;;;;5095998;28;20521;-81
2023/06/16 06:33:54;;;;;;;8.10;5.40;;;24.70;54.70;;;;;;5092920;28;20448;-80
2023/06/16 06:36:26;;;;;;;10.67;6.20;;;24.30;54.90;;;;;;5089294;28;20452;-79
2023/06/16 06:38:58;;;;;;;10.93;5.83;;;24.00;55.10;;;;;;5108842;28;20448;-83
2023/06/16 06:41:27;;;;;;;10.00;6.47;;;23.60;55.50;;;;;;5083326;28;20535;-79
2023/06/16 06:44:04;;;;;;;13.53;6.17;;;23.30;55.90;;;;;;5089598;28;20447;-80
2023/06/16 06:46:49;;;;;;;10.27;5.40;;;23.00;56.10;;;;;;5092590;28;20462;-84
2023/06/16 06:49:18;;;;;;;11.20;5.83;;;22.80;56.30;;;;;;5091960;28;20545;-81
2023/06/16 06:51:46;;;;;;;9.37;5.73;;;22.60;56.40;;;;;;5106773;28;20559;-82
2023/06/16 06:54:15;;;;;;;11.20;5.40;;;22.40;56.60;;;;;;5104434;28;20536;-82
2023/06/16 06:56:44;;;;;;;11.93;6.03;;;22.20;56.70;;;;;;5105224;28;20456;-81
2023/06/16 06:59:12;;;;;;;13.77;5.73;;;22.00;56.70;;;;;;5103387;28;20880;-82
2023/06/16 07:01:41;;;;;;;8.50;5.77;;;21.90;56.90;;;;;;5090890;28;20461;-80
2023/06/16 07:04:09;;;;;;;10.07;6.27;;;21.90;57.00;;;;;;5105739;28;20784;-80
2023/06/16 07:06:37;;;;;;;8.87;5.50;;;21.90;57.10;;;;;;5100748;28;20564;-80
2023/06/16 07:09:05;;;;;;;8.40;5.37;;;21.90;57.30;;;;;;5109535;28;20447;-80
2023/06/16 07:11:40;;;;;;;10.73;5.63;;;21.90;57.30;;;;;;5101013;28;20487;-80
2023/06/16 07:14:08;;;;;;;11.67;5.63;;;21.80;57.40;;;;;;5106406;28;20440;-83
2023/06/16 07:16:36;;;;;;;8.70;5.40;;;21.80;57.60;;;;;;5108321;28;20457;-82
2023/06/16 07:19:05;;;;;;;11.43;5.60;;;21.80;57.80;;;;;;5112159;28;20977;-81
2023/06/16 07:21:33;;;;;;;9.90;5.70;;;21.80;57.90;;;;;;5111107;28;20447;-80
2023/06/16 07:24:01;;;;;;;12.40;6.40;;;21.80;58.00;;;;;;5091771;28;20666;-83
2023/06/16 07:26:29;;;;;;;17.30;5.13;;;21.80;57.90;;;;;;5102805;28;20535;-79
2023/06/16 07:29:05;;;;;;;8.87;5.87;;;21.90;58.00;;;;;;5084792;28;20820;-82
2023/06/16 07:31:34;;;;;;;8.50;5.83;;;21.90;58.10;;;;;;5105046;28;20476;-82
2023/06/16 07:34:03;;;;;;;9.87;5.70;;;22.00;58.10;;;;;;5111492;28;20458;-80
2023/06/16 07:36:32;;;;;;;11.60;5.10;;;22.00;58.30;;;;;;5104959;28;20962;-83
2023/06/16 07:39:00;;;;;;;8.33;4.90;;;22.00;58.50;;;;;;5106380;28;20456;-81
2023/06/16 07:41:28;;;;;;;8.47;5.23;;;22.10;58.40;;;;;;5103023;28;20777;-82
2023/06/16 07:43:56;;;;;;;14.73;5.40;;;22.00;58.60;;;;;;5108543;28;20446;-82
2023/06/16 07:46:26;;;;;;;8.67;5.30;;;22.00;58.70;;;;;;5102777;28;20803;-83
2023/06/16 07:48:54;;;;;;;10.30;5.90;;;22.00;58.70;;;;;;5087522;28;20440;-79
2023/06/16 07:51:22;;;;;;;11.93;5.80;;;22.00;58.80;;;;;;5101993;28;20539;-81
2023/06/16 07:53:50;;;;;;;10.27;5.40;;;22.00;58.80;;;;;;5104309;28;20826;-81
2023/06/16 07:56:18;;;;;;;10.87;5.30;;;22.10;58.70;;;;;;5085485;28;20464;-80
2023/06/16 07:58:46;;;;;;;9.33;5.20;;;22.10;58.60;;;;;;5107509;28;20450;-80
2023/06/16 08:01:14;;;;;;;11.00;5.97;;;22.20;58.50;;;;;;5083313;28;20502;-81
2023/06/16 08:03:46;;;;;;;12.07;5.43;;;22.20;58.60;;;;;;5105887;28;20444;-82
2023/06/16 08:06:16;;;;;;;8.73;5.47;;;22.20;58.60;;;;;;5092651;28;20448;-79
2023/06/16 08:08:45;;;;;;;8.83;5.37;;;22.20;58.50;;;;;;5098917;28;20452;-80
2023/06/16 08:11:13;;;;;;;10.07;5.20;;;22.20;58.30;;;;;;5098519;28;20452;-79
2023/06/16 08:13:41;;;;;;;10.90;5.70;;;22.20;58.30;;;;;;5090384;28;20499;-81
2023/06/16 08:16:09;;;;;;;14.00;5.03;;;22.20;58.10;;;;;;5085597;28;20444;-83
2023/06/16 08:18:39;;;;;;;7.70;4.73;;;22.20;57.90;;;;;;5104044;28;20452;-78
2023/06/16 08:21:08;;;;;;;9.30;5.33;;;22.20;57.80;;;;;;5105135;28;20439;-82
2023/06/16 08:23:36;;;;;;;8.70;4.90;;;22.20;57.80;;;;;;5100173;28;20519;-80
2023/06/16 08:26:05;;;;;;;9.77;5.73;;;22.20;57.80;;;;;;5089985;28;20463;-82
2023/06/16 08:28:34;;;;;;;8.67;4.80;;;22.20;57.60;;;;;;5088204;28;20499;-81
2023/06/16 08:31:02;;;;;;;9.50;4.73;;;22.30;57.50;;;;;;5084922;28;21286;-80
2023/06/16 08:33:30;;;;;;;12.77;6.20;;;22.30;57.50;;;;;;5104922;28;20472;-82
2023/06/16 08:35:58;;;;;;;14.37;5.57;;;22.30;57.50;;;;;;5102920;28;20459;-82
2023/06/16 08:38:28;;;;;;;10.73;5.50;;;22.40;57.40;;;;;;5105320;28;21008;-83
2023/06/16 08:40:56;;;;;;;10.93;5.80;;;22.40;57.40;;;;;;5105143;28;20444;-82
2023/06/16 08:43:24;;;;;;;11.27;5.67;;;22.40;57.50;;;;;;5106493;28;20825;-83
2023/06/16 08:45:53;;;;;;;7.30;4.47;;;22.40;57.30;;;;;;5083105;28;20456;-81
2023/06/16 08:48:21;;;;;;;9.27;5.33;;;22.40;57.20;;;;;;5099090;28;20456;-81
2023/06/16 08:50:50;;;;;;;10.47;5.40;;;22.40;57.00;;;;;;5090493;28;20977;-82
2023/06/16 08:53:22;;;;;;;9.13;5.07;;;22.50;56.90;;;;;;5084570;28;20479;-78
2023/06/16 08:55:53;;;;;;;15.30;5.60;;;22.50;56.60;;;;;;5105479;28;20452;-80
2023/06/16 08:58:22;;;;;;;14.33;6.30;;;22.50;56.40;;;;;;5090602;28;20511;-79
2023/06/16 09:00:50;;;;;;;9.50;6.20;;;22.50;56.50;;;;;;5089143;28;21117;-83
2023/06/16 09:03:19;;;;;;;9.03;5.27;;;22.60;56.30;;;;;;5110010;28;20451;-81
2023/06/16 09:05:48;;;;;;;9.17;5.60;;;22.60;56.50;;;;;;5095512;28;20862;-84
2023/06/16 09:08:17;;;;;;;12.47;5.17;;;22.60;56.60;;;;;;5112617;28;20440;-81
2023/06/16 09:10:49;;;;;;;9.50;5.20;;;22.70;56.70;;;;;;5071970;28;20544;-80
2023/06/16 09:13:19;;;;;;;10.67;5.10;;;22.70;56.70;;;;;;5102943;28;20881;-81
2023/06/16 09:15:47;;;;;;;8.37;5.03;;;22.80;56.50;;;;;;5107020;28;20462;-81
2023/06/16 09:18:16;;;;;;;11.00;5.67;;;22.80;56.40;;;;;;5105994;28;20475;-81
2023/06/16 09:20:51;;;;;;;13.20;5.40;;;22.80;56.50;;;;;;5108306;28;20476;-80
2023/06/16 09:23:28;;;;;;;8.30;5.23;;;22.80;56.70;;;;;;5087448;28;20448;-83
2023/06/16 09:25:56;;;;;;;13.23;5.77;;;22.90;56.70;;;;;;5109498;28;20447;-81
2023/06/16 09:28:36;;;;;;;8.50;5.20;;;22.90;56.60;;;;;;5105729;28;20459;-81
2023/06/16 09:31:06;;;;;;;10.47;5.60;;;23.00;56.50;;;;;;5105372;28;20637;-82
2023/06/16 09:33:40;;;;;;;9.10;5.70;;;23.00;56.70;;;;;;5104563;28;20975;-79
2023/06/16 09:36:08;;;;;;;11.03;4.90;;;23.10;56.90;;;;;;5105129;28;20451;-80
2023/06/16 09:38:37;;;;;;;10.63;4.83;;;23.20;56.50;;;;;;5098721;28;20466;-82
2023/06/16 09:41:10;;;;;;;10.23;5.47;;;23.20;56.00;;;;;;5082296;28;20809;-81
2023/06/16 09:43:39;;;;;;;10.00;5.40;;;23.30;55.90;;;;;;5086170;28;20535;-80
2023/06/16 09:46:10;;;;;;;8.60;4.90;;;23.40;56.30;;;;;;5104679;28;20463;-80
2023/06/16 09:48:46;;;;;;;8.10;4.87;;;23.40;56.20;;;;;;5105148;28;20449;-80
2023/06/16 09:51:18;;;;;;;12.03;6.30;;;23.40;56.10;;;;;;5102486;28;20448;-79
2023/06/16 09:53:47;;;;;;;12.03;5.87;;;23.40;56.10;;;;;;5111231;28;20508;-83
2023/06/16 09:56:15;;;;;;;8.30;5.30;;;23.40;56.10;;;;;;5107825;28;20463;-82
2023/06/16 09:58:46;;;;;;;7.80;5.03;;;23.50;55.90;;;;;;5105908;28;20969;-83
2023/06/16 10:01:14;;;;;;;12.63;5.73;;;23.40;55.80;;;;;;5088833;28;20487;-81
2023/06/16 10:03:43;;;;;;;9.50;4.93;;;23.40;55.80;;;;;;5106329;28;20879;-81
2023/06/16 10:06:22;;;;;;;8.77;4.73;;;23.50;55.80;;;;;;5104983;28;20451;-82
2023/06/16 10:08:50;;;;;;;8.10;5.73;;;23.50;55.50;;;;;;5104462;28;20855;-80
2023/06/16 10:11:20;;;;;;;9.27;5.47;;;23.50;55.60;;;;;;5087713;28;20517;-80
2023/06/16 10:13:52;;;;;;;8.17;4.90;;;23.40;55.50;;;;;;5088812;28;20479;-83
2023/06/16 10:16:24;;;;;;;9.87;5.63;;;23.30;55.50;;;;;;5105716;28;20447;-81
2023/06/16 10:18:54;;;;;;;7.83;4.80;;;23.30;55.60;;;;;;5098643;28;20448;-81
2023/06/16 10:21:23;;;;;;;8.10;4.90;;;23.40;55.50;;;;;;5104783;28;20530;-83
2023/06/16 10:23:51;;;;;;;7.30;5.10;;;23.40;55.50;;;;;;5107739;28;20448;-80
2023/06/16 10:26:20;;;;;;;9.90;5.50;;;23.40;55.40;;;;;;5088338;28;20463;-80
2023/06/16 10:28:50;;;;;;;9.60;5.70;;;23.40;55.20;;;;;;5091805;28;20467;-80
2023/06/16 10:31:18;;;;;;;8.80;4.93;;;23.50;55.10;;;;;;5089130;28;20478;-81
2023/06/16 10:33:54;;;;;;;8.60;4.80;;;23.60;55.00;;;;;;5088065;28;20476;-81
2023/06/16 10:36:23;;;;;;;8.10;5.13;;;23.70;54.60;;;;;;5105750;28;20452;-80
2023/06/16 10:38:59;;;;;;;8.13;4.60;;;23.70;54.70;;;;;;5107360;28;20803;-82
2023/06/16 10:41:31;;;;;;;9.67;4.90;;;23.70;54.40;;;;;;5111105;28;20458;-80
2023/06/16 10:44:25;;;;;;;8.03;4.63;;;23.70;54.30;;;;;;5112649;28;20440;-83
2023/06/16 10:47:36;;;;;;;9.80;4.30;;;23.80;54.20;;;;;;5105250;28;20447;-82
2023/06/16 10:50:06;;;;;;;8.93;5.00;;;23.90;54.20;;;;;;5092019;28;20458;-84
2023/06/16 10:52:52;;;;;;;11.23;5.77;;;23.90;54.30;;;;;;5093260;28;20459;-85
2023/06/16 10:55:35;;;;;;;7.63;4.57;;;23.90;54.00;;;;;;5110284;28;20441;-80
2023/06/16 10:58:23;;;;;;;7.80;4.60;;;23.90;53.80;;;;;;5085017;28;20551;-84
2023/06/16 11:01:23;;;;;;;9.30;4.53;;;24.00;53.60;;;;;;5095692;28;20483;-86
2023/06/16 11:04:00;;;;;;;8.13;4.83;;;24.10;53.60;;;;;;5106072;28;20451;-82
2023/06/16 11:07:05;;;;;;;7.40;4.77;;;24.10;53.70;;;;;;5101908;28;20463;-84
2023/06/16 11:10:00;;;;;;;7.57;4.50;;;24.10;53.50;;;;;;5113639;28;20455;-83
2023/06/16 11:12:31;;;;;;;9.00;4.90;;;24.10;53.00;;;;;;5103970;28;20811;-80
2023/06/16 11:15:05;;;;;;;7.50;4.70;;;24.10;52.80;;;;;;5099147;28;20469;-81
2023/06/16 11:17:36;;;;;;;8.80;4.53;;;24.10;52.70;;;;;;5090887;28;20526;-85
2023/06/16 11:20:06;;;;;;;11.33;5.07;;;24.00;52.50;;;;;;5104480;28;20876;-81
2023/06/16 11:22:35;;;;;;;7.37;4.20;;;24.00;52.50;;;;;;5091823;28;20471;-83
2023/06/16 11:25:07;;;;;;;12.23;6.57;;;24.00;52.40;;;;;;5088859;28;20444;-82
2023/06/16 11:27:40;;;;;;;7.43;4.70;;;24.00;52.40;;;;;;5092286;28;20493;-85
2023/06/16 11:30:13;;;;;;;11.37;4.97;;;24.00;52.20;;;;;;5090305;28;20483;-81
2023/06/16 11:32:42;;;;;;;9.20;4.60;;;24.00;52.10;;;;;;5108394;28;20465;-81
2023/06/16 11:35:10;;;;;;;14.27;6.77;;;23.90;52.00;;;;;;5108900;28;20480;-82
2023/06/16 11:37:43;;;;;;;10.40;4.60;;;23.90;52.10;;;;;;5086731;28;20501;-82
2023/06/16 11:40:12;;;;;;;10.53;4.80;;;23.90;52.20;;;;;;5108177;28;20482;-84
2023/06/16 11:42:40;;;;;;;10.40;4.97;;;23.90;52.20;;;;;;5107375;28;20444;-84
2023/06/16 11:45:09;;;;;;;10.30;4.83;;;24.00;52.40;;;;;;5091926;28;20782;-83
2023/06/16 11:47:39;;;;;;;8.00;4.60;;;24.00;52.40;;;;;;5107606;28;21020;-83
2023/06/16 11:50:09;;;;;;;12.33;5.93;;;24.00;52.80;;;;;;5092039;28;20968;-84
2023/06/16 11:52:37;;;;;;;8.43;4.83;;;24.00;52.70;;;;;;5102346;28;20559;-82
2023/06/16 11:55:08;;;;;;;8.03;4.37;;;24.10;52.30;;;;;;5107673;28;20476;-83
2023/06/16 11:57:40;;;;;;;19.93;9.30;;;24.20;52.20;;;;;;5105733;28;20785;-83
2023/06/16 12:00:10;;;;;;;9.50;4.77;;;24.30;52.10;;;;;;5088591;28;20982;-83
2023/06/16 12:02:39;;;;;;;12.20;5.00;;;24.20;51.80;;;;;;5082012;28;20455;-83
2023/06/16 12:05:11;;;;;;;9.47;4.90;;;24.30;51.60;;;;;;5087192;28;20443;-80
2023/06/16 12:07:39;;;;;;;10.13;5.50;;;24.30;51.40;;;;;;5101022;28;20440;-81
2023/06/16 12:10:09;;;;;;;12.43;5.33;;;24.30;51.70;;;;;;5085181;28;20457;-80
2023/06/16 12:12:40;;;;;;;10.67;4.90;;;24.40;51.80;;;;;;5097761;28;20504;-83
2023/06/16 12:15:09;;;;;;;10.33;4.70;;;24.40;52.00;;;;;;5091279;28;20468;-83
2023/06/16 12:17:39;;;;;;;7.13;4.10;;;24.40;52.50;;;;;;5103863;28;20534;-82
2023/06/16 12:20:11;;;;;;;12.27;5.83;;;24.40;52.90;;;;;;5083857;28;20472;-82
2023/06/16 12:22:39;;;;;;;10.90;5.17;;;24.50;52.70;;;;;;5106036;28;20479;-82
2023/06/16 12:25:13;;;;;;;11.50;4.67;;;24.60;52.60;;;;;;5109532;28;20451;-82
2023/06/16 12:27:43;;;;;;;8.03;4.13;;;24.60;52.70;;;;;;5100011;28;20455;-82
2023/06/16 12:30:12;;;;;;;8.10;5.00;;;24.70;53.10;;;;;;5089062;28;20463;-79
2023/06/16 12:32:42;;;;;;;8.33;5.00;;;24.70;53.00;;;;;;5087329;28;20464;-81
2023/06/16 12:35:12;;;;;;;11.33;4.70;;;24.80;52.40;;;;;;5105617;28;20981;-80
2023/06/16 12:37:41;;;;;;;10.43;5.10;;;24.80;52.00;;;;;;5109796;28;20497;-80
2023/06/16 12:40:14;;;;;;;7.80;4.40;;;24.80;51.80;;;;;;5101900;28;21012;-81
2023/06/16 12:42:42;;;;;;;7.07;4.50;;;24.70;51.70;;;;;;5101862;28;20543;-81
2023/06/16 12:45:12;;;;;;;9.67;4.70;;;24.70;51.80;;;;;;5100651;28;20854;-81
2023/06/16 12:47:41;;;;;;;10.70;4.83;;;24.50;52.20;;;;;;5102527;28;21101;-83
2023/06/16 12:50:11;;;;;;;8.50;4.87;;;24.50;52.70;;;;;;5105049;28;20448;-81
2023/06/16 12:52:39;;;;;;;9.80;4.47;;;24.40;53.30;;;;;;5106738;28;20566;-81
2023/06/16 12:55:08;;;;;;;14.50;4.40;;;24.30;53.50;;;;;;5109978;28;20497;-81
2023/06/16 12:57:36;;;;;;;6.70;4.40;;;24.20;53.90;;;;;;5106918;28;20440;-82